sensor_id;sensor_type;location;lat;lon;timestamp;P1;durP1;ratioP1;P2;durP2;ratioP2
16969;SDS011;8601;48.718;8.992;2022-08-05T00:01:24;3.83;;;3.00;;
16969;SDS011;8601;48.718;8.992;2022-08-05T00:03:52;4.27;;;3.07;;
16969;SDS011;8601;48.718;8.992;2022-08-05T00:06:18;3.03;;;2.70;;
16969;SDS011;8601;48.718;8.992;2022-08-05T00:08:47;4.03;;;3.10;;
16969;SDS011;8601;48.718;8.992;2022-08-05T00:11:14;3.90;;;2.73;;
16969;SDS011;8601;48.718;8.992;2022-08-05T00:13:42;3.33;;;3.03;;
16969;SDS011;8601;48.718;8.992;2022-08-05T00:16:10;3.20;;;2.70;;
16969;SDS011;8601;48.718;8.992;2022-08-05T00:18:39;3.17;;;2.80;;
16969;SDS011;8601;48.718;8.992;2022-08-05T00:21:08;4.17;;;3.27;;
16969;SDS011;8601;48.718;8.992;2022-08-05T00:23:35;4.00;;;3.00;;
16969;SDS011;8601;48.718;8.992;2022-08-05T00:26:05;3.17;;;2.53;;
16969;SDS011;8601;48.718;8.992;2022-08-05T00:28:33;4.23;;;3.33;;
16969;SDS011;8601;48.718;8.992;2022-08-05T00:31:00;3.50;;;3.20;;
16969;SDS011;8601;48.718;8.992;2022-08-05T00:33:27;3.37;;;3.10;;
16969;SDS011;8601;48.718;8.992;2022-08-05T00:35:54;3.73;;;2.90;;
16969;SDS011;8601;48.718;8.992;2022-08-05T00:38:21;3.57;;;2.80;;
16969;SDS011;8601;48.718;8.992;2022-08-05T00:40:49;4.13;;;2.80;;
16969;SDS011;8601;48.718;8.992;2022-08-05T00:43:19;3.10;;;2.80;;
16969;SDS011;8601;48.718;8.992;2022-08-05T00:45:47;3.92;;;3.17;;
16969;SDS011;8601;48.718;8.992;2022-08-05T00:48:15;3.73;;;3.40;;
16969;SDS011;8601;48.718;8.992;2022-08-05T00:50:43;3.53;;;3.13;;
16969;SDS011;8601;48.718;8.992;2022-08-05T00:53:11;4.37;;;3.10;;
16969;SDS011;8601;48.718;8.992;2022-08-05T00:55:40;3.23;;;2.90;;
16969;SDS011;8601;48.718;8.992;2022-08-05T00:58:07;3.50;;;3.20;;
16969;SDS011;8601;48.718;8.992;2022-08-05T01:00:35;3.43;;;2.87;;
16969;SDS011;8601;48.718;8.992;2022-08-05T01:03:02;3.13;;;2.83;;
16969;SDS011;8601;48.718;8.992;2022-08-05T01:05:29;3.97;;;2.90;;
16969;SDS011;8601;48.718;8.992;2022-08-05T01:07:56;2.97;;;2.67;;
16969;SDS011;8601;48.718;8.992;2022-08-05T01:10:26;3.00;;;2.73;;
16969;SDS011;8601;48.718;8.992;2022-08-05T01:12:57;3.57;;;2.80;;
16969;SDS011;8601;48.718;8.992;2022-08-05T01:15:31;3.80;;;3.00;;
16969;SDS011;8601;48.718;8.992;2022-08-05T01:18:05;4.87;;;2.57;;
16969;SDS011;8601;48.718;8.992;2022-08-05T01:20:39;3.73;;;2.40;;
16969;SDS011;8601;48.718;8.992;2022-08-05T01:23:15;3.80;;;2.40;;
16969;SDS011;8601;48.718;8.992;2022-08-05T01:26:09;6.63;;;2.57;;
16969;SDS011;8601;48.718;8.992;2022-08-05T01:28:48;3.27;;;2.60;;
16969;SDS011;8601;48.718;8.992;2022-08-05T01:31:21;2.50;;;2.30;;
16969;SDS011;8601;48.718;8.992;2022-08-05T01:33:53;4.07;;;2.43;;
16969;SDS011;8601;48.718;8.992;2022-08-05T01:36:28;3.23;;;2.20;;
16969;SDS011;8601;48.718;8.992;2022-08-05T01:38:59;2.80;;;2.27;;
16969;SDS011;8601;48.718;8.992;2022-08-05T01:41:28;8.27;;;2.33;;
16969;SDS011;8601;48.718;8.992;2022-08-05T01:44:01;3.47;;;2.27;;
16969;SDS011;8601;48.718;8.992;2022-08-05T01:46:29;4.80;;;2.40;;
16969;SDS011;8601;48.718;8.992;2022-08-05T01:48:57;5.47;;;2.40;;
16969;SDS011;8601;48.718;8.992;2022-08-05T01:51:27;9.70;;;2.70;;
16969;SDS011;8601;48.718;8.992;2022-08-05T01:53:59;4.03;;;2.40;;
16969;SDS011;8601;48.718;8.992;2022-08-05T01:56:28;5.00;;;2.70;;
16969;SDS011;8601;48.718;8.992;2022-08-05T01:58:57;4.10;;;2.60;;
16969;SDS011;8601;48.718;8.992;2022-08-05T02:01:28;4.67;;;2.60;;
16969;SDS011;8601;48.718;8.992;2022-08-05T02:03:56;3.63;;;2.23;;
16969;SDS011;8601;48.718;8.992;2022-08-05T02:06:25;6.10;;;2.53;;
16969;SDS011;8601;48.718;8.992;2022-08-05T02:08:52;7.50;;;2.40;;
16969;SDS011;8601;48.718;8.992;2022-08-05T02:11:19;7.90;;;2.40;;
16969;SDS011;8601;48.718;8.992;2022-08-05T02:13:51;3.60;;;2.57;;
16969;SDS011;8601;48.718;8.992;2022-08-05T02:16:22;7.90;;;2.30;;
16969;SDS011;8601;48.718;8.992;2022-08-05T02:18:53;4.80;;;2.63;;
16969;SDS011;8601;48.718;8.992;2022-08-05T02:21:24;2.90;;;2.33;;
16969;SDS011;8601;48.718;8.992;2022-08-05T02:23:54;5.40;;;2.50;;
16969;SDS011;8601;48.718;8.992;2022-08-05T02:26:29;5.37;;;2.60;;
16969;SDS011;8601;48.718;8.992;2022-08-05T02:29:03;4.60;;;2.73;;
16969;SDS011;8601;48.718;8.992;2022-08-05T02:31:34;6.17;;;2.80;;
16969;SDS011;8601;48.718;8.992;2022-08-05T02:34:04;5.70;;;2.77;;
16969;SDS011;8601;48.718;8.992;2022-08-05T02:36:34;6.47;;;3.00;;
16969;SDS011;8601;48.718;8.992;2022-08-05T02:39:05;4.37;;;2.47;;
16969;SDS011;8601;48.718;8.992;2022-08-05T02:41:34;6.27;;;2.93;;
16969;SDS011;8601;48.718;8.992;2022-08-05T02:44:03;6.40;;;2.70;;
16969;SDS011;8601;48.718;8.992;2022-08-05T02:46:34;7.10;;;2.80;;
16969;SDS011;8601;48.718;8.992;2022-08-05T02:49:04;7.50;;;3.00;;
16969;SDS011;8601;48.718;8.992;2022-08-05T02:51:31;4.20;;;2.70;;
16969;SDS011;8601;48.718;8.992;2022-08-05T02:54:00;5.27;;;2.60;;
16969;SDS011;8601;48.718;8.992;2022-08-05T02:56:27;6.67;;;2.70;;
16969;SDS011;8601;48.718;8.992;2022-08-05T02:58:55;5.33;;;3.13;;
16969;SDS011;8601;48.718;8.992;2022-08-05T03:01:23;5.43;;;3.23;;
16969;SDS011;8601;48.718;8.992;2022-08-05T03:03:53;9.37;;;3.03;;
16969;SDS011;8601;48.718;8.992;2022-08-05T03:06:22;5.70;;;2.90;;
16969;SDS011;8601;48.718;8.992;2022-08-05T03:08:50;4.87;;;2.80;;
16969;SDS011;8601;48.718;8.992;2022-08-05T03:11:18;8.60;;;3.03;;
16969;SDS011;8601;48.718;8.992;2022-08-05T03:13:46;5.87;;;2.90;;
16969;SDS011;8601;48.718;8.992;2022-08-05T03:16:13;6.23;;;2.67;;
16969;SDS011;8601;48.718;8.992;2022-08-05T03:18:40;7.03;;;3.27;;
16969;SDS011;8601;48.718;8.992;2022-08-05T03:21:09;8.23;;;3.20;;
16969;SDS011;8601;48.718;8.992;2022-08-05T03:23:37;5.23;;;2.90;;
16969;SDS011;8601;48.718;8.992;2022-08-05T03:26:06;9.67;;;2.87;;
16969;SDS011;8601;48.718;8.992;2022-08-05T03:28:33;6.17;;;2.73;;
16969;SDS011;8601;48.718;8.992;2022-08-05T03:31:01;6.80;;;2.80;;
16969;SDS011;8601;48.718;8.992;2022-08-05T03:33:29;9.53;;;3.40;;
16969;SDS011;8601;48.718;8.992;2022-08-05T03:35:57;5.37;;;2.90;;
16969;SDS011;8601;48.718;8.992;2022-08-05T03:38:26;8.60;;;2.93;;
16969;SDS011;8601;48.718;8.992;2022-08-05T03:40:53;5.23;;;3.00;;
16969;SDS011;8601;48.718;8.992;2022-08-05T03:43:20;5.87;;;3.07;;
16969;SDS011;8601;48.718;8.992;2022-08-05T03:45:49;7.57;;;2.83;;
16969;SDS011;8601;48.718;8.992;2022-08-05T03:48:18;6.30;;;2.90;;
16969;SDS011;8601;48.718;8.992;2022-08-05T03:50:47;3.57;;;2.60;;
16969;SDS011;8601;48.718;8.992;2022-08-05T03:53:18;6.73;;;2.50;;
16969;SDS011;8601;48.718;8.992;2022-08-05T03:55:56;4.50;;;2.90;;
16969;SDS011;8601;48.718;8.992;2022-08-05T03:58:26;6.83;;;3.37;;
16969;SDS011;8601;48.718;8.992;2022-08-05T04:00:56;7.13;;;2.83;;
16969;SDS011;8601;48.718;8.992;2022-08-05T04:03:27;5.70;;;3.03;;
16969;SDS011;8601;48.718;8.992;2022-08-05T04:05:59;5.13;;;2.83;;
16969;SDS011;8601;48.718;8.992;2022-08-05T04:08:27;5.20;;;3.77;;
16969;SDS011;8601;48.718;8.992;2022-08-05T04:10:56;6.03;;;2.93;;
16969;SDS011;8601;48.718;8.992;2022-08-05T04:13:24;4.87;;;2.57;;
16969;SDS011;8601;48.718;8.992;2022-08-05T04:15:52;5.17;;;3.10;;
16969;SDS011;8601;48.718;8.992;2022-08-05T04:18:19;5.50;;;3.20;;
16969;SDS011;8601;48.718;8.992;2022-08-05T04:20:51;4.37;;;3.63;;
16969;SDS011;8601;48.718;8.992;2022-08-05T04:23:19;4.93;;;3.27;;
16969;SDS011;8601;48.718;8.992;2022-08-05T04:25:48;6.97;;;3.10;;
16969;SDS011;8601;48.718;8.992;2022-08-05T04:28:16;5.77;;;3.30;;
16969;SDS011;8601;48.718;8.992;2022-08-05T04:30:44;6.17;;;3.40;;
16969;SDS011;8601;48.718;8.992;2022-08-05T04:33:11;5.07;;;3.10;;
16969;SDS011;8601;48.718;8.992;2022-08-05T04:35:38;8.60;;;3.63;;
16969;SDS011;8601;48.718;8.992;2022-08-05T04:38:07;6.33;;;3.13;;
16969;SDS011;8601;48.718;8.992;2022-08-05T04:40:34;7.27;;;3.83;;
16969;SDS011;8601;48.718;8.992;2022-08-05T04:43:02;7.13;;;2.93;;
16969;SDS011;8601;48.718;8.992;2022-08-05T04:45:31;5.40;;;2.67;;
16969;SDS011;8601;48.718;8.992;2022-08-05T04:48:04;5.43;;;2.90;;
16969;SDS011;8601;48.718;8.992;2022-08-05T04:50:43;6.13;;;2.97;;
16969;SDS011;8601;48.718;8.992;2022-08-05T04:53:11;4.77;;;2.87;;
16969;SDS011;8601;48.718;8.992;2022-08-05T04:55:40;6.60;;;3.27;;
16969;SDS011;8601;48.718;8.992;2022-08-05T04:58:09;5.10;;;2.93;;
16969;SDS011;8601;48.718;8.992;2022-08-05T05:00:38;5.27;;;3.47;;
16969;SDS011;8601;48.718;8.992;2022-08-05T05:03:06;6.63;;;3.37;;
16969;SDS011;8601;48.718;8.992;2022-08-05T05:05:34;5.43;;;3.17;;
16969;SDS011;8601;48.718;8.992;2022-08-05T05:08:03;6.50;;;3.17;;
16969;SDS011;8601;48.718;8.992;2022-08-05T05:10:32;4.97;;;3.00;;
16969;SDS011;8601;48.718;8.992;2022-08-05T05:13:03;6.43;;;3.20;;
16969;SDS011;8601;48.718;8.992;2022-08-05T05:15:30;4.70;;;3.37;;
16969;SDS011;8601;48.718;8.992;2022-08-05T05:18:05;5.03;;;3.23;;
16969;SDS011;8601;48.718;8.992;2022-08-05T05:20:33;6.63;;;3.20;;
16969;SDS011;8601;48.718;8.992;2022-08-05T05:23:00;7.70;;;3.03;;
16969;SDS011;8601;48.718;8.992;2022-08-05T05:25:29;7.20;;;3.47;;
16969;SDS011;8601;48.718;8.992;2022-08-05T05:27:56;4.83;;;2.83;;
16969;SDS011;8601;48.718;8.992;2022-08-05T05:30:23;8.60;;;3.43;;
16969;SDS011;8601;48.718;8.992;2022-08-05T05:32:50;6.33;;;3.20;;
16969;SDS011;8601;48.718;8.992;2022-08-05T05:35:18;8.30;;;3.70;;
16969;SDS011;8601;48.718;8.992;2022-08-05T05:37:46;7.50;;;3.43;;
16969;SDS011;8601;48.718;8.992;2022-08-05T05:40:14;8.03;;;3.63;;
16969;SDS011;8601;48.718;8.992;2022-08-05T05:42:42;9.53;;;3.60;;
16969;SDS011;8601;48.718;8.992;2022-08-05T05:45:09;6.13;;;3.20;;
16969;SDS011;8601;48.718;8.992;2022-08-05T05:47:38;7.90;;;3.60;;
16969;SDS011;8601;48.718;8.992;2022-08-05T05:50:06;6.47;;;4.40;;
16969;SDS011;8601;48.718;8.992;2022-08-05T05:52:35;7.40;;;3.50;;
16969;SDS011;8601;48.718;8.992;2022-08-05T05:55:02;4.90;;;3.63;;
16969;SDS011;8601;48.718;8.992;2022-08-05T05:57:32;5.97;;;3.73;;
16969;SDS011;8601;48.718;8.992;2022-08-05T05:59:59;6.70;;;3.77;;
16969;SDS011;8601;48.718;8.992;2022-08-05T06:02:26;7.13;;;3.70;;
16969;SDS011;8601;48.718;8.992;2022-08-05T06:04:53;5.70;;;4.13;;
16969;SDS011;8601;48.718;8.992;2022-08-05T06:07:20;6.13;;;4.60;;
16969;SDS011;8601;48.718;8.992;2022-08-05T06:09:49;7.63;;;3.87;;
16969;SDS011;8601;48.718;8.992;2022-08-05T06:12:16;7.97;;;4.23;;
16969;SDS011;8601;48.718;8.992;2022-08-05T06:14:43;14.23;;;4.73;;
16969;SDS011;8601;48.718;8.992;2022-08-05T06:17:10;17.40;;;5.90;;
16969;SDS011;8601;48.718;8.992;2022-08-05T06:19:37;8.13;;;3.93;;
16969;SDS011;8601;48.718;8.992;2022-08-05T06:22:05;11.20;;;4.00;;
16969;SDS011;8601;48.718;8.992;2022-08-05T06:24:33;10.33;;;4.40;;
16969;SDS011;8601;48.718;8.992;2022-08-05T06:27:02;4.60;;;3.40;;
16969;SDS011;8601;48.718;8.992;2022-08-05T06:29:30;8.07;;;3.97;;
16969;SDS011;8601;48.718;8.992;2022-08-05T06:31:57;6.43;;;3.80;;
16969;SDS011;8601;48.718;8.992;2022-08-05T06:34:23;5.50;;;3.40;;
16969;SDS011;8601;48.718;8.992;2022-08-05T06:36:51;8.00;;;3.80;;
16969;SDS011;8601;48.718;8.992;2022-08-05T06:39:18;6.93;;;3.23;;
16969;SDS011;8601;48.718;8.992;2022-08-05T06:41:45;3.87;;;3.13;;
16969;SDS011;8601;48.718;8.992;2022-08-05T06:44:26;5.70;;;3.60;;
16969;SDS011;8601;48.718;8.992;2022-08-05T06:46:54;6.30;;;3.47;;
16969;SDS011;8601;48.718;8.992;2022-08-05T06:49:22;5.87;;;2.77;;
16969;SDS011;8601;48.718;8.992;2022-08-05T06:51:49;4.23;;;2.50;;
16969;SDS011;8601;48.718;8.992;2022-08-05T06:54:16;3.53;;;2.53;;
16969;SDS011;8601;48.718;8.992;2022-08-05T06:56:43;5.33;;;2.50;;
16969;SDS011;8601;48.718;8.992;2022-08-05T06:59:10;5.80;;;2.63;;
16969;SDS011;8601;48.718;8.992;2022-08-05T07:01:39;6.77;;;2.67;;
16969;SDS011;8601;48.718;8.992;2022-08-05T07:04:07;2.57;;;2.10;;
16969;SDS011;8601;48.718;8.992;2022-08-05T07:06:34;3.77;;;2.00;;
16969;SDS011;8601;48.718;8.992;2022-08-05T07:09:01;2.63;;;2.40;;
16969;SDS011;8601;48.718;8.992;2022-08-05T07:11:28;5.33;;;2.50;;
16969;SDS011;8601;48.718;8.992;2022-08-05T07:13:55;3.30;;;2.10;;
16969;SDS011;8601;48.718;8.992;2022-08-05T07:16:41;4.80;;;2.30;;
16969;SDS011;8601;48.718;8.992;2022-08-05T07:19:14;4.17;;;2.00;;
16969;SDS011;8601;48.718;8.992;2022-08-05T07:21:43;2.67;;;2.07;;
16969;SDS011;8601;48.718;8.992;2022-08-05T07:24:10;3.77;;;1.73;;
16969;SDS011;8601;48.718;8.992;2022-08-05T07:26:38;2.22;;;1.55;;
16969;SDS011;8601;48.718;8.992;2022-08-05T07:29:06;2.13;;;1.70;;
16969;SDS011;8601;48.718;8.992;2022-08-05T07:31:33;2.00;;;1.43;;
16969;SDS011;8601;48.718;8.992;2022-08-05T07:34:02;3.00;;;2.03;;
16969;SDS011;8601;48.718;8.992;2022-08-05T07:36:29;2.00;;;1.80;;
16969;SDS011;8601;48.718;8.992;2022-08-05T07:38:57;2.60;;;1.60;;
16969;SDS011;8601;48.718;8.992;2022-08-05T07:41:24;1.50;;;1.37;;
16969;SDS011;8601;48.718;8.992;2022-08-05T07:43:53;1.88;;;1.70;;
16969;SDS011;8601;48.718;8.992;2022-08-05T07:46:20;1.93;;;1.53;;
16969;SDS011;8601;48.718;8.992;2022-08-05T07:48:48;1.73;;;1.50;;
16969;SDS011;8601;48.718;8.992;2022-08-05T07:51:16;1.65;;;1.55;;
16969;SDS011;8601;48.718;8.992;2022-08-05T07:53:43;2.30;;;1.60;;
16969;SDS011;8601;48.718;8.992;2022-08-05T07:56:17;1.60;;;1.50;;
16969;SDS011;8601;48.718;8.992;2022-08-05T07:58:44;2.00;;;1.80;;
16969;SDS011;8601;48.718;8.992;2022-08-05T08:01:11;3.22;;;1.60;;
16969;SDS011;8601;48.718;8.992;2022-08-05T08:03:46;4.10;;;3.53;;
16969;SDS011;8601;48.718;8.992;2022-08-05T08:06:22;2.75;;;2.10;;
16969;SDS011;8601;48.718;8.992;2022-08-05T08:08:51;1.83;;;1.73;;
16969;SDS011;8601;48.718;8.992;2022-08-05T08:11:20;2.20;;;1.63;;
16969;SDS011;8601;48.718;8.992;2022-08-05T08:13:55;2.30;;;1.75;;
16969;SDS011;8601;48.718;8.992;2022-08-05T08:16:26;2.20;;;1.70;;
16969;SDS011;8601;48.718;8.992;2022-08-05T08:21:33;2.08;;;1.42;;
16969;SDS011;8601;48.718;8.992;2022-08-05T08:24:07;2.45;;;1.65;;
16969;SDS011;8601;48.718;8.992;2022-08-05T08:26:34;3.00;;;1.70;;
16969;SDS011;8601;48.718;8.992;2022-08-05T08:29:01;2.00;;;1.77;;
16969;SDS011;8601;48.718;8.992;2022-08-05T08:31:28;2.10;;;1.70;;
16969;SDS011;8601;48.718;8.992;2022-08-05T08:33:55;3.15;;;1.58;;
16969;SDS011;8601;48.718;8.992;2022-08-05T08:36:22;1.50;;;1.40;;
16969;SDS011;8601;48.718;8.992;2022-08-05T08:38:50;3.42;;;1.73;;
16969;SDS011;8601;48.718;8.992;2022-08-05T08:41:19;1.65;;;1.55;;
16969;SDS011;8601;48.718;8.992;2022-08-05T08:43:50;1.73;;;1.63;;
16969;SDS011;8601;48.718;8.992;2022-08-05T08:46:21;2.97;;;1.70;;
16969;SDS011;8601;48.718;8.992;2022-08-05T08:48:52;1.70;;;1.60;;
16969;SDS011;8601;48.718;8.992;2022-08-05T08:51:20;3.97;;;1.98;;
16969;SDS011;8601;48.718;8.992;2022-08-05T08:53:50;2.17;;;1.98;;
16969;SDS011;8601;48.718;8.992;2022-08-05T08:56:17;2.35;;;1.63;;
16969;SDS011;8601;48.718;8.992;2022-08-05T08:58:47;1.60;;;1.50;;
16969;SDS011;8601;48.718;8.992;2022-08-05T09:01:15;3.00;;;1.65;;
16969;SDS011;8601;48.718;8.992;2022-08-05T09:06:15;3.42;;;1.50;;
16969;SDS011;8601;48.718;8.992;2022-08-05T09:08:42;2.05;;;1.52;;
16969;SDS011;8601;48.718;8.992;2022-08-05T09:11:12;3.15;;;1.73;;
16969;SDS011;8601;48.718;8.992;2022-08-05T09:13:40;1.50;;;1.40;;
16969;SDS011;8601;48.718;8.992;2022-08-05T09:16:08;3.38;;;1.70;;
16969;SDS011;8601;48.718;8.992;2022-08-05T09:18:35;2.00;;;1.65;;
16969;SDS011;8601;48.718;8.992;2022-08-05T09:21:03;2.38;;;1.60;;
16969;SDS011;8601;48.718;8.992;2022-08-05T09:23:30;2.17;;;1.60;;
16969;SDS011;8601;48.718;8.992;2022-08-05T09:26:04;1.60;;;1.50;;
16969;SDS011;8601;48.718;8.992;2022-08-05T09:28:35;4.10;;;1.45;;
16969;SDS011;8601;48.718;8.992;2022-08-05T09:31:04;2.25;;;1.50;;
16969;SDS011;8601;48.718;8.992;2022-08-05T09:33:45;2.47;;;1.27;;
16969;SDS011;8601;48.718;8.992;2022-08-05T09:38:57;1.65;;;1.55;;
16969;SDS011;8601;48.718;8.992;2022-08-05T09:41:27;2.42;;;1.52;;
16969;SDS011;8601;48.718;8.992;2022-08-05T09:43:56;2.45;;;1.52;;
16969;SDS011;8601;48.718;8.992;2022-08-05T09:46:33;1.60;;;1.35;;
16969;SDS011;8601;48.718;8.992;2022-08-05T09:49:01;1.90;;;1.42;;
16969;SDS011;8601;48.718;8.992;2022-08-05T09:51:39;1.75;;;1.40;;
16969;SDS011;8601;48.718;8.992;2022-08-05T09:54:06;3.47;;;1.50;;
16969;SDS011;8601;48.718;8.992;2022-08-05T09:56:35;2.55;;;1.40;;
16969;SDS011;8601;48.718;8.992;2022-08-05T09:59:05;1.85;;;1.10;;
16969;SDS011;8601;48.718;8.992;2022-08-05T10:01:34;1.60;;;1.30;;
16969;SDS011;8601;48.718;8.992;2022-08-05T10:04:15;1.77;;;1.30;;
16969;SDS011;8601;48.718;8.992;2022-08-05T10:06:52;1.88;;;1.42;;
16969;SDS011;8601;48.718;8.992;2022-08-05T10:09:20;2.83;;;1.63;;
16969;SDS011;8601;48.718;8.992;2022-08-05T10:11:48;2.00;;;1.35;;
16969;SDS011;8601;48.718;8.992;2022-08-05T10:14:24;2.22;;;1.40;;
16969;SDS011;8601;48.718;8.992;2022-08-05T10:16:52;2.78;;;1.23;;
16969;SDS011;8601;48.718;8.992;2022-08-05T10:19:21;1.90;;;1.48;;
16969;SDS011;8601;48.718;8.992;2022-08-05T10:21:48;2.45;;;1.63;;
16969;SDS011;8601;48.718;8.992;2022-08-05T10:24:15;3.75;;;2.03;;
16969;SDS011;8601;48.718;8.992;2022-08-05T10:26:44;10.52;;;2.25;;
16969;SDS011;8601;48.718;8.992;2022-08-05T10:29:12;2.38;;;1.50;;
16969;SDS011;8601;48.718;8.992;2022-08-05T10:31:41;1.80;;;1.50;;
16969;SDS011;8601;48.718;8.992;2022-08-05T10:34:08;1.60;;;1.50;;
16969;SDS011;8601;48.718;8.992;2022-08-05T10:36:36;4.57;;;1.42;;
16969;SDS011;8601;48.718;8.992;2022-08-05T10:39:20;3.92;;;1.55;;
16969;SDS011;8601;48.718;8.992;2022-08-05T10:41:56;1.88;;;1.35;;
16969;SDS011;8601;48.718;8.992;2022-08-05T10:44:27;2.35;;;1.38;;
16969;SDS011;8601;48.718;8.992;2022-08-05T10:47:08;1.40;;;1.30;;
16969;SDS011;8601;48.718;8.992;2022-08-05T10:49:40;1.80;;;1.38;;
16969;SDS011;8601;48.718;8.992;2022-08-05T10:52:39;1.70;;;1.33;;
16969;SDS011;8601;48.718;8.992;2022-08-05T10:55:10;1.80;;;1.50;;
16969;SDS011;8601;48.718;8.992;2022-08-05T10:57:38;3.70;;;1.40;;
16969;SDS011;8601;48.718;8.992;2022-08-05T11:00:09;2.15;;;1.40;;
16969;SDS011;8601;48.718;8.992;2022-08-05T11:02:39;1.70;;;1.50;;
16969;SDS011;8601;48.718;8.992;2022-08-05T11:05:35;1.50;;;1.40;;
16969;SDS011;8601;48.718;8.992;2022-08-05T11:08:04;2.75;;;1.50;;
16969;SDS011;8601;48.718;8.992;2022-08-05T11:10:42;1.65;;;1.27;;
16969;SDS011;8601;48.718;8.992;2022-08-05T11:13:09;2.42;;;1.50;;
16969;SDS011;8601;48.718;8.992;2022-08-05T11:16:22;1.70;;;1.60;;
16969;SDS011;8601;48.718;8.992;2022-08-05T11:21:52;2.65;;;1.33;;
16969;SDS011;8601;48.718;8.992;2022-08-05T11:24:30;1.88;;;1.42;;
16969;SDS011;8601;48.718;8.992;2022-08-05T11:29:58;1.88;;;1.50;;
16969;SDS011;8601;48.718;8.992;2022-08-05T11:32:26;1.60;;;1.27;;
16969;SDS011;8601;48.718;8.992;2022-08-05T11:34:54;2.58;;;1.40;;
16969;SDS011;8601;48.718;8.992;2022-08-05T11:37:43;2.13;;;1.38;;
16969;SDS011;8601;48.718;8.992;2022-08-05T11:43:29;1.60;;;1.50;;
16969;SDS011;8601;48.718;8.992;2022-08-05T11:45:56;1.83;;;1.52;;
16969;SDS011;8601;48.718;8.992;2022-08-05T11:51:06;2.70;;;1.70;;
16969;SDS011;8601;48.718;8.992;2022-08-05T11:53:35;3.78;;;1.90;;
16969;SDS011;8601;48.718;8.992;2022-08-05T11:56:02;1.92;;;1.40;;
16969;SDS011;8601;48.718;8.992;2022-08-05T11:58:29;2.95;;;1.48;;
16969;SDS011;8601;48.718;8.992;2022-08-05T12:00:59;1.65;;;1.27;;
16969;SDS011;8601;48.718;8.992;2022-08-05T12:03:28;2.28;;;1.30;;
16969;SDS011;8601;48.718;8.992;2022-08-05T12:06:00;3.17;;;1.60;;
16969;SDS011;8601;48.718;8.992;2022-08-05T12:08:28;1.75;;;1.50;;
16969;SDS011;8601;48.718;8.992;2022-08-05T12:10:57;3.20;;;1.42;;
16969;SDS011;8601;48.718;8.992;2022-08-05T12:13:25;2.30;;;1.27;;
16969;SDS011;8601;48.718;8.992;2022-08-05T12:15:53;1.73;;;1.50;;
16969;SDS011;8601;48.718;8.992;2022-08-05T12:18:26;3.03;;;1.70;;
16969;SDS011;8601;48.718;8.992;2022-08-05T12:20:54;1.55;;;1.45;;
16969;SDS011;8601;48.718;8.992;2022-08-05T12:23:21;1.92;;;1.80;;
16969;SDS011;8601;48.718;8.992;2022-08-05T12:25:49;3.13;;;1.63;;
16969;SDS011;8601;48.718;8.992;2022-08-05T12:28:33;1.60;;;1.50;;
16969;SDS011;8601;48.718;8.992;2022-08-05T12:31:02;2.40;;;1.80;;
16969;SDS011;8601;48.718;8.992;2022-08-05T12:33:30;1.83;;;1.40;;
16969;SDS011;8601;48.718;8.992;2022-08-05T12:38:48;2.63;;;1.38;;
16969;SDS011;8601;48.718;8.992;2022-08-05T12:41:15;2.00;;;1.83;;
16969;SDS011;8601;48.718;8.992;2022-08-05T12:43:50;2.72;;;1.63;;
16969;SDS011;8601;48.718;8.992;2022-08-05T12:46:19;1.60;;;1.50;;
16969;SDS011;8601;48.718;8.992;2022-08-05T12:48:55;2.97;;;1.52;;
16969;SDS011;8601;48.718;8.992;2022-08-05T12:51:27;1.70;;;1.60;;
16969;SDS011;8601;48.718;8.992;2022-08-05T12:54:00;4.10;;;1.60;;
16969;SDS011;8601;48.718;8.992;2022-08-05T12:56:28;1.88;;;1.77;;
16969;SDS011;8601;48.718;8.992;2022-08-05T12:59:13;2.05;;;1.95;;
16969;SDS011;8601;48.718;8.992;2022-08-05T13:01:41;2.22;;;1.77;;
16969;SDS011;8601;48.718;8.992;2022-08-05T13:04:26;2.30;;;1.80;;
16969;SDS011;8601;48.718;8.992;2022-08-05T13:06:55;3.13;;;1.55;;
16969;SDS011;8601;48.718;8.992;2022-08-05T13:09:23;2.08;;;1.58;;
16969;SDS011;8601;48.718;8.992;2022-08-05T13:11:54;2.22;;;1.77;;
16969;SDS011;8601;48.718;8.992;2022-08-05T13:14:28;2.50;;;1.90;;
16969;SDS011;8601;48.718;8.992;2022-08-05T13:17:00;1.75;;;1.65;;
16969;SDS011;8601;48.718;8.992;2022-08-05T13:19:28;2.97;;;1.75;;
16969;SDS011;8601;48.718;8.992;2022-08-05T13:21:55;1.70;;;1.60;;
16969;SDS011;8601;48.718;8.992;2022-08-05T13:24:22;2.00;;;1.75;;
16969;SDS011;8601;48.718;8.992;2022-08-05T13:26:49;2.05;;;1.60;;
16969;SDS011;8601;48.718;8.992;2022-08-05T13:29:17;2.00;;;1.80;;
16969;SDS011;8601;48.718;8.992;2022-08-05T13:31:46;2.58;;;1.80;;
16969;SDS011;8601;48.718;8.992;2022-08-05T13:34:13;1.98;;;1.60;;
16969;SDS011;8601;48.718;8.992;2022-08-05T13:36:44;2.63;;;1.80;;
16969;SDS011;8601;48.718;8.992;2022-08-05T13:39:10;2.05;;;1.80;;
16969;SDS011;8601;48.718;8.992;2022-08-05T13:41:38;2.40;;;1.73;;
16969;SDS011;8601;48.718;8.992;2022-08-05T13:44:17;1.92;;;1.83;;
16969;SDS011;8601;48.718;8.992;2022-08-05T13:46:44;2.95;;;1.70;;
16969;SDS011;8601;48.718;8.992;2022-08-05T13:49:12;2.25;;;1.83;;
16969;SDS011;8601;48.718;8.992;2022-08-05T13:51:39;3.92;;;1.90;;
16969;SDS011;8601;48.718;8.992;2022-08-05T13:54:06;2.92;;;1.77;;
16969;SDS011;8601;48.718;8.992;2022-08-05T13:56:33;2.47;;;1.75;;
16969;SDS011;8601;48.718;8.992;2022-08-05T13:59:00;4.70;;;1.60;;
16969;SDS011;8601;48.718;8.992;2022-08-05T14:01:27;2.58;;;1.70;;
16969;SDS011;8601;48.718;8.992;2022-08-05T14:03:54;2.30;;;1.52;;
16969;SDS011;8601;48.718;8.992;2022-08-05T14:06:48;2.40;;;1.70;;
16969;SDS011;8601;48.718;8.992;2022-08-05T14:09:14;2.55;;;1.67;;
16969;SDS011;8601;48.718;8.992;2022-08-05T14:11:41;2.65;;;1.67;;
16969;SDS011;8601;48.718;8.992;2022-08-05T14:14:08;5.53;;;1.80;;
16969;SDS011;8601;48.718;8.992;2022-08-05T14:16:39;2.00;;;1.80;;
16969;SDS011;8601;48.718;8.992;2022-08-05T14:19:06;2.60;;;1.90;;
16969;SDS011;8601;48.718;8.992;2022-08-05T14:21:33;2.95;;;1.90;;
16969;SDS011;8601;48.718;8.992;2022-08-05T14:24:07;3.65;;;2.05;;
16969;SDS011;8601;48.718;8.992;2022-08-05T14:26:38;2.22;;;1.80;;
16969;SDS011;8601;48.718;8.992;2022-08-05T14:29:05;4.43;;;1.90;;
16969;SDS011;8601;48.718;8.992;2022-08-05T14:31:32;3.92;;;1.77;;
16969;SDS011;8601;48.718;8.992;2022-08-05T14:34:01;2.50;;;1.90;;
16969;SDS011;8601;48.718;8.992;2022-08-05T14:36:28;2.03;;;1.75;;
16969;SDS011;8601;48.718;8.992;2022-08-05T14:38:55;1.92;;;1.80;;
16969;SDS011;8601;48.718;8.992;2022-08-05T14:41:23;2.63;;;2.10;;
16969;SDS011;8601;48.718;8.992;2022-08-05T14:43:50;2.17;;;1.98;;
16969;SDS011;8601;48.718;8.992;2022-08-05T14:46:18;3.13;;;1.92;;
16969;SDS011;8601;48.718;8.992;2022-08-05T14:48:45;2.10;;;1.80;;
16969;SDS011;8601;48.718;8.992;2022-08-05T14:51:12;3.92;;;1.85;;
16969;SDS011;8601;48.718;8.992;2022-08-05T14:53:39;2.42;;;1.95;;
16969;SDS011;8601;48.718;8.992;2022-08-05T14:56:06;2.88;;;1.85;;
16969;SDS011;8601;48.718;8.992;2022-08-05T14:58:34;2.30;;;2.03;;
16969;SDS011;8601;48.718;8.992;2022-08-05T15:01:02;2.17;;;1.75;;
16969;SDS011;8601;48.718;8.992;2022-08-05T15:03:33;2.50;;;1.80;;
16969;SDS011;8601;48.718;8.992;2022-08-05T15:06:00;2.88;;;2.00;;
16969;SDS011;8601;48.718;8.992;2022-08-05T15:08:27;3.25;;;1.77;;
16969;SDS011;8601;48.718;8.992;2022-08-05T15:10:54;3.20;;;2.33;;
16969;SDS011;8601;48.718;8.992;2022-08-05T15:13:21;2.33;;;2.00;;
16969;SDS011;8601;48.718;8.992;2022-08-05T15:15:50;2.25;;;1.73;;
16969;SDS011;8601;48.718;8.992;2022-08-05T15:18:17;3.50;;;2.13;;
16969;SDS011;8601;48.718;8.992;2022-08-05T15:20:44;4.13;;;2.55;;
16969;SDS011;8601;48.718;8.992;2022-08-05T15:23:11;5.20;;;2.30;;
16969;SDS011;8601;48.718;8.992;2022-08-05T15:25:39;2.70;;;2.50;;
16969;SDS011;8601;48.718;8.992;2022-08-05T15:28:06;4.53;;;2.40;;
16969;SDS011;8601;48.718;8.992;2022-08-05T15:30:35;2.70;;;2.22;;
16969;SDS011;8601;48.718;8.992;2022-08-05T15:35:33;2.78;;;2.45;;
16969;SDS011;8601;48.718;8.992;2022-08-05T15:38:01;2.90;;;2.35;;
16969;SDS011;8601;48.718;8.992;2022-08-05T15:40:27;4.53;;;2.58;;